sensor_id;sensor_type;location;lat;lon;timestamp;P1;durP1;ratioP1;P2;durP2;ratioP2
43327;SDS011;28923;45.412;10.852;2023-04-30T00:01:53;3.47;;;2.72;;
43327;SDS011;28923;45.412;10.852;2023-04-30T00:04:19;2.83;;;2.30;;
43327;SDS011;28923;45.412;10.852;2023-04-30T00:06:44;3.00;;;2.40;;
43327;SDS011;28923;45.412;10.852;2023-04-30T00:09:09;3.08;;;2.70;;
43327;SDS011;28923;45.412;10.852;2023-04-30T00:11:35;3.25;;;2.50;;
43327;SDS011;28923;45.412;10.852;2023-04-30T00:14:00;3.00;;;2.63;;
43327;SDS011;28923;45.412;10.852;2023-04-30T00:16:25;3.40;;;2.78;;
43327;SDS011;28923;45.412;10.852;2023-04-30T00:18:51;4.10;;;2.70;;
43327;SDS011;28923;45.412;10.852;2023-04-30T00:21:16;2.72;;;2.35;;
43327;SDS011;28923;45.412;10.852;2023-04-30T00:23:42;4.18;;;2.85;;
43327;SDS011;28923;45.412;10.852;2023-04-30T00:26:07;2.95;;;2.60;;
43327;SDS011;28923;45.412;10.852;2023-04-30T00:28:32;3.05;;;2.70;;
43327;SDS011;28923;45.412;10.852;2023-04-30T00:30:58;4.38;;;3.00;;
43327;SDS011;28923;45.412;10.852;2023-04-30T00:33:23;3.42;;;2.85;;
43327;SDS011;28923;45.412;10.852;2023-04-30T00:35:49;5.15;;;3.10;;
43327;SDS011;28923;45.412;10.852;2023-04-30T00:38:14;3.42;;;2.90;;
43327;SDS011;28923;45.412;10.852;2023-04-30T00:40:40;3.63;;;3.15;;
43327;SDS011;28923;45.412;10.852;2023-04-30T00:43:06;2.92;;;2.65;;
43327;SDS011;28923;45.412;10.852;2023-04-30T00:45:32;3.90;;;2.75;;
43327;SDS011;28923;45.412;10.852;2023-04-30T00:47:57;3.83;;;3.10;;
43327;SDS011;28923;45.412;10.852;2023-04-30T00:50:23;3.03;;;2.75;;
43327;SDS011;28923;45.412;10.852;2023-04-30T00:52:48;3.22;;;2.92;;
43327;SDS011;28923;45.412;10.852;2023-04-30T00:55:14;3.22;;;2.78;;
43327;SDS011;28923;45.412;10.852;2023-04-30T00:57:40;3.67;;;3.10;;
43327;SDS011;28923;45.412;10.852;2023-04-30T01:00:06;3.58;;;3.00;;
43327;SDS011;28923;45.412;10.852;2023-04-30T01:02:35;3.03;;;2.80;;
43327;SDS011;28923;45.412;10.852;2023-04-30T01:05:04;2.70;;;2.50;;
43327;SDS011;28923;45.412;10.852;2023-04-30T01:07:31;3.75;;;3.05;;
43327;SDS011;28923;45.412;10.852;2023-04-30T01:09:56;3.28;;;2.97;;
43327;SDS011;28923;45.412;10.852;2023-04-30T01:12:25;3.97;;;3.22;;
43327;SDS011;28923;45.412;10.852;2023-04-30T01:14:55;3.63;;;3.20;;
43327;SDS011;28923;45.412;10.852;2023-04-30T01:19:47;4.35;;;3.17;;
43327;SDS011;28923;45.412;10.852;2023-04-30T01:27:31;4.55;;;2.70;;
43327;SDS011;28923;45.412;10.852;2023-04-30T01:29:56;3.30;;;2.90;;
43327;SDS011;28923;45.412;10.852;2023-04-30T01:32:23;3.70;;;2.97;;
43327;SDS011;28923;45.412;10.852;2023-04-30T01:34:48;3.10;;;2.60;;
43327;SDS011;28923;45.412;10.852;2023-04-30T01:42:32;3.78;;;2.65;;
43327;SDS011;28923;45.412;10.852;2023-04-30T01:47:47;3.45;;;2.72;;
43327;SDS011;28923;45.412;10.852;2023-04-30T01:52:59;4.35;;;3.00;;
43327;SDS011;28923;45.412;10.852;2023-04-30T01:57:55;2.95;;;2.63;;
43327;SDS011;28923;45.412;10.852;2023-04-30T02:00:22;3.88;;;3.00;;
43327;SDS011;28923;45.412;10.852;2023-04-30T02:02:48;2.83;;;2.60;;
43327;SDS011;28923;45.412;10.852;2023-04-30T02:05:14;3.35;;;2.85;;
43327;SDS011;28923;45.412;10.852;2023-04-30T02:07:40;3.42;;;2.88;;
43327;SDS011;28923;45.412;10.852;2023-04-30T02:10:07;3.38;;;3.03;;
43327;SDS011;28923;45.412;10.852;2023-04-30T02:12:33;4.95;;;3.00;;
43327;SDS011;28923;45.412;10.852;2023-04-30T02:14:58;2.67;;;2.47;;
43327;SDS011;28923;45.412;10.852;2023-04-30T02:17:24;3.33;;;2.70;;
43327;SDS011;28923;45.412;10.852;2023-04-30T02:19:49;2.97;;;2.67;;
43327;SDS011;28923;45.412;10.852;2023-04-30T02:22:14;3.42;;;3.00;;
43327;SDS011;28923;45.412;10.852;2023-04-30T02:24:40;3.28;;;2.90;;
43327;SDS011;28923;45.412;10.852;2023-04-30T02:27:05;3.80;;;3.10;;
43327;SDS011;28923;45.412;10.852;2023-04-30T02:29:30;3.30;;;2.70;;
43327;SDS011;28923;45.412;10.852;2023-04-30T02:31:57;2.90;;;2.35;;
43327;SDS011;28923;45.412;10.852;2023-04-30T02:34:23;3.47;;;2.90;;
43327;SDS011;28923;45.412;10.852;2023-04-30T02:36:48;3.35;;;2.90;;
43327;SDS011;28923;45.412;10.852;2023-04-30T02:39:14;3.80;;;3.28;;
43327;SDS011;28923;45.412;10.852;2023-04-30T02:41:39;3.08;;;2.42;;
43327;SDS011;28923;45.412;10.852;2023-04-30T02:44:04;3.40;;;2.55;;
43327;SDS011;28923;45.412;10.852;2023-04-30T02:46:30;3.38;;;2.65;;
43327;SDS011;28923;45.412;10.852;2023-04-30T02:48:55;2.75;;;2.47;;
43327;SDS011;28923;45.412;10.852;2023-04-30T02:51:21;2.78;;;2.58;;
43327;SDS011;28923;45.412;10.852;2023-04-30T02:53:46;2.75;;;2.42;;
43327;SDS011;28923;45.412;10.852;2023-04-30T02:56:12;2.88;;;2.60;;
43327;SDS011;28923;45.412;10.852;2023-04-30T02:58:37;2.72;;;2.42;;
43327;SDS011;28923;45.412;10.852;2023-04-30T03:01:03;2.83;;;2.53;;
43327;SDS011;28923;45.412;10.852;2023-04-30T03:03:28;3.17;;;2.63;;
43327;SDS011;28923;45.412;10.852;2023-04-30T03:05:53;3.08;;;2.58;;
43327;SDS011;28923;45.412;10.852;2023-04-30T03:08:20;2.90;;;2.42;;
43327;SDS011;28923;45.412;10.852;2023-04-30T03:10:46;2.60;;;2.40;;
43327;SDS011;28923;45.412;10.852;2023-04-30T03:13:11;4.15;;;2.90;;
43327;SDS011;28923;45.412;10.852;2023-04-30T03:15:37;3.03;;;2.60;;
43327;SDS011;28923;45.412;10.852;2023-04-30T03:18:02;3.85;;;2.70;;
43327;SDS011;28923;45.412;10.852;2023-04-30T03:20:29;3.28;;;2.65;;
43327;SDS011;28923;45.412;10.852;2023-04-30T03:22:54;2.90;;;2.55;;
43327;SDS011;28923;45.412;10.852;2023-04-30T03:25:19;4.00;;;2.90;;
43327;SDS011;28923;45.412;10.852;2023-04-30T03:27:45;4.13;;;2.90;;
43327;SDS011;28923;45.412;10.852;2023-04-30T03:30:10;3.10;;;2.80;;
43327;SDS011;28923;45.412;10.852;2023-04-30T03:32:36;3.15;;;2.80;;
43327;SDS011;28923;45.412;10.852;2023-04-30T03:35:01;2.60;;;2.40;;
43327;SDS011;28923;45.412;10.852;2023-04-30T03:37:27;3.65;;;3.03;;
43327;SDS011;28923;45.412;10.852;2023-04-30T03:39:52;5.00;;;2.58;;
43327;SDS011;28923;45.412;10.852;2023-04-30T03:42:18;4.55;;;3.38;;
43327;SDS011;28923;45.412;10.852;2023-04-30T03:44:43;4.00;;;2.83;;
43327;SDS011;28923;45.412;10.852;2023-04-30T03:47:08;2.67;;;2.47;;
43327;SDS011;28923;45.412;10.852;2023-04-30T03:49:34;2.67;;;2.47;;
43327;SDS011;28923;45.412;10.852;2023-04-30T03:51:59;3.28;;;2.90;;
43327;SDS011;28923;45.412;10.852;2023-04-30T03:54:25;3.17;;;2.88;;
43327;SDS011;28923;45.412;10.852;2023-04-30T03:56:50;3.22;;;2.80;;
43327;SDS011;28923;45.412;10.852;2023-04-30T03:59:16;3.78;;;2.70;;
43327;SDS011;28923;45.412;10.852;2023-04-30T04:01:42;3.47;;;2.65;;
43327;SDS011;28923;45.412;10.852;2023-04-30T04:04:08;3.08;;;2.72;;
43327;SDS011;28923;45.412;10.852;2023-04-30T04:06:33;3.90;;;2.92;;
43327;SDS011;28923;45.412;10.852;2023-04-30T04:08:59;3.30;;;2.47;;
43327;SDS011;28923;45.412;10.852;2023-04-30T04:11:24;3.15;;;2.65;;
43327;SDS011;28923;45.412;10.852;2023-04-30T04:13:50;3.63;;;2.80;;
43327;SDS011;28923;45.412;10.852;2023-04-30T04:16:15;2.85;;;2.53;;
43327;SDS011;28923;45.412;10.852;2023-04-30T04:18:41;3.95;;;2.70;;
43327;SDS011;28923;45.412;10.852;2023-04-30T04:21:06;3.58;;;2.80;;
43327;SDS011;28923;45.412;10.852;2023-04-30T04:23:33;3.17;;;2.33;;
43327;SDS011;28923;45.412;10.852;2023-04-30T04:25:58;3.50;;;2.90;;
43327;SDS011;28923;45.412;10.852;2023-04-30T04:28:24;3.15;;;2.78;;
43327;SDS011;28923;45.412;10.852;2023-04-30T04:30:51;2.90;;;2.60;;
43327;SDS011;28923;45.412;10.852;2023-04-30T04:33:16;3.15;;;2.85;;
43327;SDS011;28923;45.412;10.852;2023-04-30T04:35:42;3.08;;;2.78;;
43327;SDS011;28923;45.412;10.852;2023-04-30T04:38:08;2.67;;;2.47;;
43327;SDS011;28923;45.412;10.852;2023-04-30T04:40:33;2.70;;;2.47;;
43327;SDS011;28923;45.412;10.852;2023-04-30T04:43:01;2.80;;;2.45;;
43327;SDS011;28923;45.412;10.852;2023-04-30T04:45:27;2.70;;;2.50;;
43327;SDS011;28923;45.412;10.852;2023-04-30T04:47:53;2.85;;;2.63;;
43327;SDS011;28923;45.412;10.852;2023-04-30T04:50:18;3.22;;;2.70;;
43327;SDS011;28923;45.412;10.852;2023-04-30T04:52:44;2.88;;;2.42;;
43327;SDS011;28923;45.412;10.852;2023-04-30T04:55:09;3.13;;;2.70;;
43327;SDS011;28923;45.412;10.852;2023-04-30T04:57:36;2.72;;;2.53;;
43327;SDS011;28923;45.412;10.852;2023-04-30T05:00:01;2.60;;;2.40;;
43327;SDS011;28923;45.412;10.852;2023-04-30T05:02:28;2.90;;;2.30;;
43327;SDS011;28923;45.412;10.852;2023-04-30T05:04:54;4.38;;;2.58;;
43327;SDS011;28923;45.412;10.852;2023-04-30T05:07:20;3.88;;;2.70;;
43327;SDS011;28923;45.412;10.852;2023-04-30T05:09:45;3.28;;;2.80;;
43327;SDS011;28923;45.412;10.852;2023-04-30T05:12:12;2.90;;;2.60;;
43327;SDS011;28923;45.412;10.852;2023-04-30T05:14:37;5.13;;;2.60;;
43327;SDS011;28923;45.412;10.852;2023-04-30T05:17:03;6.70;;;2.75;;
43327;SDS011;28923;45.412;10.852;2023-04-30T05:19:28;3.97;;;2.90;;
43327;SDS011;28923;45.412;10.852;2023-04-30T05:21:53;4.25;;;2.95;;
43327;SDS011;28923;45.412;10.852;2023-04-30T05:24:19;6.60;;;3.17;;
43327;SDS011;28923;45.412;10.852;2023-04-30T05:26:44;5.07;;;3.20;;
43327;SDS011;28923;45.412;10.852;2023-04-30T05:29:09;4.10;;;2.55;;
43327;SDS011;28923;45.412;10.852;2023-04-30T05:31:36;3.55;;;2.50;;
43327;SDS011;28923;45.412;10.852;2023-04-30T05:34:01;4.90;;;2.97;;
43327;SDS011;28923;45.412;10.852;2023-04-30T05:36:27;4.70;;;3.30;;
43327;SDS011;28923;45.412;10.852;2023-04-30T05:38:53;7.05;;;2.97;;
43327;SDS011;28923;45.412;10.852;2023-04-30T05:41:18;7.82;;;3.15;;
43327;SDS011;28923;45.412;10.852;2023-04-30T05:43:44;5.78;;;2.60;;
43327;SDS011;28923;45.412;10.852;2023-04-30T05:46:09;4.88;;;2.80;;
43327;SDS011;28923;45.412;10.852;2023-04-30T05:48:35;6.03;;;2.92;;
43327;SDS011;28923;45.412;10.852;2023-04-30T05:51:01;4.72;;;3.20;;
43327;SDS011;28923;45.412;10.852;2023-04-30T05:53:26;4.22;;;3.08;;
43327;SDS011;28923;45.412;10.852;2023-04-30T05:55:51;3.85;;;2.78;;
43327;SDS011;28923;45.412;10.852;2023-04-30T05:58:17;7.50;;;3.00;;
43327;SDS011;28923;45.412;10.852;2023-04-30T06:00:42;5.63;;;3.08;;
43327;SDS011;28923;45.412;10.852;2023-04-30T06:03:07;6.43;;;3.13;;
43327;SDS011;28923;45.412;10.852;2023-04-30T06:05:33;5.40;;;3.08;;
43327;SDS011;28923;45.412;10.852;2023-04-30T06:07:58;4.38;;;2.92;;
43327;SDS011;28923;45.412;10.852;2023-04-30T06:10:24;3.83;;;2.90;;
43327;SDS011;28923;45.412;10.852;2023-04-30T06:12:49;4.55;;;2.72;;
43327;SDS011;28923;45.412;10.852;2023-04-30T06:15:15;5.45;;;3.03;;
43327;SDS011;28923;45.412;10.852;2023-04-30T06:17:40;5.70;;;2.80;;
43327;SDS011;28923;45.412;10.852;2023-04-30T06:20:06;5.68;;;2.90;;
43327;SDS011;28923;45.412;10.852;2023-04-30T06:22:31;5.57;;;2.67;;
43327;SDS011;28923;45.412;10.852;2023-04-30T06:24:57;4.90;;;3.35;;
43327;SDS011;28923;45.412;10.852;2023-04-30T06:27:23;4.90;;;2.95;;
43327;SDS011;28923;45.412;10.852;2023-04-30T06:29:49;5.82;;;3.05;;
43327;SDS011;28923;45.412;10.852;2023-04-30T06:32:14;4.20;;;2.90;;
43327;SDS011;28923;45.412;10.852;2023-04-30T06:34:40;3.67;;;2.72;;
43327;SDS011;28923;45.412;10.852;2023-04-30T06:37:06;4.00;;;2.85;;
43327;SDS011;28923;45.412;10.852;2023-04-30T06:39:31;5.03;;;2.85;;
43327;SDS011;28923;45.412;10.852;2023-04-30T06:41:57;3.00;;;2.70;;
43327;SDS011;28923;45.412;10.852;2023-04-30T06:44:22;5.35;;;3.03;;
43327;SDS011;28923;45.412;10.852;2023-04-30T06:46:48;4.03;;;2.85;;
43327;SDS011;28923;45.412;10.852;2023-04-30T06:49:14;4.72;;;2.70;;
43327;SDS011;28923;45.412;10.852;2023-04-30T06:51:41;2.90;;;2.38;;
43327;SDS011;28923;45.412;10.852;2023-04-30T06:54:07;3.83;;;3.00;;
43327;SDS011;28923;45.412;10.852;2023-04-30T06:56:32;4.15;;;3.05;;
43327;SDS011;28923;45.412;10.852;2023-04-30T06:58:57;3.75;;;2.78;;
43327;SDS011;28923;45.412;10.852;2023-04-30T07:01:23;4.93;;;3.00;;
43327;SDS011;28923;45.412;10.852;2023-04-30T07:03:48;6.43;;;3.20;;
43327;SDS011;28923;45.412;10.852;2023-04-30T07:06:15;5.07;;;3.08;;
43327;SDS011;28923;45.412;10.852;2023-04-30T07:08:40;3.67;;;2.72;;
43327;SDS011;28923;45.412;10.852;2023-04-30T07:11:08;5.35;;;2.50;;
43327;SDS011;28923;45.412;10.852;2023-04-30T07:13:33;4.57;;;2.83;;
43327;SDS011;28923;45.412;10.852;2023-04-30T07:15:59;4.45;;;2.80;;
43327;SDS011;28923;45.412;10.852;2023-04-30T07:18:24;6.68;;;2.53;;
43327;SDS011;28923;45.412;10.852;2023-04-30T07:20:49;3.90;;;2.85;;
43327;SDS011;28923;45.412;10.852;2023-04-30T07:23:15;4.53;;;2.78;;
43327;SDS011;28923;45.412;10.852;2023-04-30T07:25:40;7.65;;;2.92;;
43327;SDS011;28923;45.412;10.852;2023-04-30T07:28:05;5.82;;;2.70;;
43327;SDS011;28923;45.412;10.852;2023-04-30T07:30:31;4.40;;;2.70;;
43327;SDS011;28923;45.412;10.852;2023-04-30T07:32:56;3.47;;;3.03;;
43327;SDS011;28923;45.412;10.852;2023-04-30T07:35:22;4.97;;;2.47;;
43327;SDS011;28923;45.412;10.852;2023-04-30T07:37:47;4.45;;;2.60;;
43327;SDS011;28923;45.412;10.852;2023-04-30T07:40:12;4.47;;;3.00;;
43327;SDS011;28923;45.412;10.852;2023-04-30T07:42:39;6.00;;;2.65;;
43327;SDS011;28923;45.412;10.852;2023-04-30T07:45:05;5.68;;;2.40;;
43327;SDS011;28923;45.412;10.852;2023-04-30T07:47:31;3.65;;;3.10;;
43327;SDS011;28923;45.412;10.852;2023-04-30T07:49:56;3.42;;;2.90;;
43327;SDS011;28923;45.412;10.852;2023-04-30T07:52:21;4.80;;;2.83;;
43327;SDS011;28923;45.412;10.852;2023-04-30T07:54:47;3.53;;;2.55;;
43327;SDS011;28923;45.412;10.852;2023-04-30T07:57:12;9.80;;;2.72;;
43327;SDS011;28923;45.412;10.852;2023-04-30T07:59:37;6.13;;;3.20;;
43327;SDS011;28923;45.412;10.852;2023-04-30T08:02:03;6.72;;;3.00;;
43327;SDS011;28923;45.412;10.852;2023-04-30T08:04:28;4.68;;;3.20;;
43327;SDS011;28923;45.412;10.852;2023-04-30T08:06:53;2.92;;;2.50;;
43327;SDS011;28923;45.412;10.852;2023-04-30T08:09:19;3.25;;;2.60;;
43327;SDS011;28923;45.412;10.852;2023-04-30T08:11:44;5.75;;;3.20;;
43327;SDS011;28923;45.412;10.852;2023-04-30T08:14:09;4.88;;;2.70;;
43327;SDS011;28923;45.412;10.852;2023-04-30T08:16:36;6.18;;;2.63;;
43327;SDS011;28923;45.412;10.852;2023-04-30T08:19:01;5.07;;;2.80;;
43327;SDS011;28923;45.412;10.852;2023-04-30T08:21:27;8.90;;;2.63;;
43327;SDS011;28923;45.412;10.852;2023-04-30T08:23:53;5.45;;;2.50;;
43327;SDS011;28923;45.412;10.852;2023-04-30T08:26:18;3.78;;;2.55;;
43327;SDS011;28923;45.412;10.852;2023-04-30T08:28:43;7.40;;;2.85;;
43327;SDS011;28923;45.412;10.852;2023-04-30T08:31:09;3.75;;;2.55;;
43327;SDS011;28923;45.412;10.852;2023-04-30T08:33:34;3.20;;;2.30;;
43327;SDS011;28923;45.412;10.852;2023-04-30T08:36:00;4.15;;;2.47;;
43327;SDS011;28923;45.412;10.852;2023-04-30T08:38:26;3.88;;;2.30;;
43327;SDS011;28923;45.412;10.852;2023-04-30T08:40:56;5.18;;;2.40;;
43327;SDS011;28923;45.412;10.852;2023-04-30T08:43:23;2.70;;;2.45;;
43327;SDS011;28923;45.412;10.852;2023-04-30T08:45:49;3.28;;;2.47;;
43327;SDS011;28923;45.412;10.852;2023-04-30T08:48:15;4.15;;;2.47;;
43327;SDS011;28923;45.412;10.852;2023-04-30T08:50:41;4.88;;;2.70;;
43327;SDS011;28923;45.412;10.852;2023-04-30T08:53:07;5.65;;;2.42;;
43327;SDS011;28923;45.412;10.852;2023-04-30T08:55:33;7.13;;;2.58;;
43327;SDS011;28923;45.412;10.852;2023-04-30T08:57:58;3.35;;;2.38;;
43327;SDS011;28923;45.412;10.852;2023-04-30T09:00:24;3.03;;;2.58;;
43327;SDS011;28923;45.412;10.852;2023-04-30T09:02:51;2.72;;;2.42;;
43327;SDS011;28923;45.412;10.852;2023-04-30T09:05:17;4.10;;;2.55;;
43327;SDS011;28923;45.412;10.852;2023-04-30T09:07:43;6.30;;;2.50;;
43327;SDS011;28923;45.412;10.852;2023-04-30T09:10:15;3.90;;;2.53;;
43327;SDS011;28923;45.412;10.852;2023-04-30T09:12:42;3.45;;;2.20;;
43327;SDS011;28923;45.412;10.852;2023-04-30T09:15:10;6.45;;;2.75;;
43327;SDS011;28923;45.412;10.852;2023-04-30T09:17:35;6.07;;;2.50;;
43327;SDS011;28923;45.412;10.852;2023-04-30T09:20:10;2.58;;;2.20;;
43327;SDS011;28923;45.412;10.852;2023-04-30T09:22:36;4.30;;;2.53;;
43327;SDS011;28923;45.412;10.852;2023-04-30T09:25:02;2.97;;;2.65;;
43327;SDS011;28923;45.412;10.852;2023-04-30T09:27:28;3.00;;;2.65;;
43327;SDS011;28923;45.412;10.852;2023-04-30T09:29:53;4.30;;;2.63;;
43327;SDS011;28923;45.412;10.852;2023-04-30T09:32:18;5.00;;;2.65;;
43327;SDS011;28923;45.412;10.852;2023-04-30T09:34:44;5.38;;;2.35;;
43327;SDS011;28923;45.412;10.852;2023-04-30T09:37:09;3.92;;;2.25;;
43327;SDS011;28923;45.412;10.852;2023-04-30T09:39:48;5.03;;;2.38;;
43327;SDS011;28923;45.412;10.852;2023-04-30T09:42:14;9.15;;;2.60;;
43327;SDS011;28923;45.412;10.852;2023-04-30T09:44:39;4.13;;;2.30;;
43327;SDS011;28923;45.412;10.852;2023-04-30T09:49:39;4.60;;;2.42;;
43327;SDS011;28923;45.412;10.852;2023-04-30T09:52:05;5.07;;;2.30;;
43327;SDS011;28923;45.412;10.852;2023-04-30T09:54:31;4.10;;;2.03;;
43327;SDS011;28923;45.412;10.852;2023-04-30T09:56:58;4.82;;;1.92;;
43327;SDS011;28923;45.412;10.852;2023-04-30T09:59:30;4.05;;;2.15;;
43327;SDS011;28923;45.412;10.852;2023-04-30T10:01:59;5.45;;;2.25;;
43327;SDS011;28923;45.412;10.852;2023-04-30T10:04:27;6.88;;;1.95;;
43327;SDS011;28923;45.412;10.852;2023-04-30T10:06:53;3.65;;;2.15;;
43327;SDS011;28923;45.412;10.852;2023-04-30T10:09:19;3.63;;;2.13;;
43327;SDS011;28923;45.412;10.852;2023-04-30T10:11:44;2.72;;;1.85;;
43327;SDS011;28923;45.412;10.852;2023-04-30T10:14:11;3.47;;;1.73;;
43327;SDS011;28923;45.412;10.852;2023-04-30T10:16:46;4.22;;;1.95;;
43327;SDS011;28923;45.412;10.852;2023-04-30T10:19:22;3.65;;;2.20;;
43327;SDS011;28923;45.412;10.852;2023-04-30T10:21:47;5.38;;;1.90;;
43327;SDS011;28923;45.412;10.852;2023-04-30T10:24:13;4.53;;;2.25;;
43327;SDS011;28923;45.412;10.852;2023-04-30T10:26:39;7.18;;;2.00;;
43327;SDS011;28923;45.412;10.852;2023-04-30T10:29:05;6.82;;;1.98;;
43327;SDS011;28923;45.412;10.852;2023-04-30T10:31:31;3.60;;;1.83;;
43327;SDS011;28923;45.412;10.852;2023-04-30T10:39:09;4.78;;;1.90;;
43327;SDS011;28923;45.412;10.852;2023-04-30T10:41:35;4.10;;;1.73;;
43327;SDS011;28923;45.412;10.852;2023-04-30T10:44:01;3.72;;;2.03;;
43327;SDS011;28923;45.412;10.852;2023-04-30T10:46:27;2.58;;;1.55;;
43327;SDS011;28923;45.412;10.852;2023-04-30T10:48:53;2.08;;;1.50;;
43327;SDS011;28923;45.412;10.852;2023-04-30T10:51:19;3.83;;;1.83;;
43327;SDS011;28923;45.412;10.852;2023-04-30T10:53:48;1.88;;;1.33;;
43327;SDS011;28923;45.412;10.852;2023-04-30T10:56:14;3.22;;;1.58;;
43327;SDS011;28923;45.412;10.852;2023-04-30T10:58:52;3.90;;;1.52;;
43327;SDS011;28923;45.412;10.852;2023-04-30T11:01:18;3.15;;;1.35;;
43327;SDS011;28923;45.412;10.852;2023-04-30T11:06:28;3.42;;;1.55;;
43327;SDS011;28923;45.412;10.852;2023-04-30T11:09:12;3.88;;;1.42;;
43327;SDS011;28923;45.412;10.852;2023-04-30T11:11:38;2.75;;;1.15;;
43327;SDS011;28923;45.412;10.852;2023-04-30T11:14:06;2.88;;;1.40;;
43327;SDS011;28923;45.412;10.852;2023-04-30T11:16:35;2.83;;;1.30;;
43327;SDS011;28923;45.412;10.852;2023-04-30T11:19:13;2.00;;;1.13;;
43327;SDS011;28923;45.412;10.852;2023-04-30T11:21:39;1.20;;;1.10;;
43327;SDS011;28923;45.412;10.852;2023-04-30T11:24:04;5.03;;;1.58;;
43327;SDS011;28923;45.412;10.852;2023-04-30T11:26:54;3.95;;;1.45;;
43327;SDS011;28923;45.412;10.852;2023-04-30T11:29:15;7.15;;;1.70;;
43327;SDS011;28923;45.412;10.852;2023-04-30T11:31:41;3.90;;;1.38;;
43327;SDS011;28923;45.412;10.852;2023-04-30T11:34:07;2.72;;;1.25;;
43327;SDS011;28923;45.412;10.852;2023-04-30T11:36:33;2.78;;;1.60;;
43327;SDS011;28923;45.412;10.852;2023-04-30T11:38:59;1.90;;;1.10;;
43327;SDS011;28923;45.412;10.852;2023-04-30T11:41:25;2.60;;;1.17;;
43327;SDS011;28923;45.412;10.852;2023-04-30T11:43:51;3.38;;;1.30;;
43327;SDS011;28923;45.412;10.852;2023-04-30T11:46:16;3.00;;;1.35;;
43327;SDS011;28923;45.412;10.852;2023-04-30T11:48:45;3.15;;;1.30;;
43327;SDS011;28923;45.412;10.852;2023-04-30T11:51:21;3.70;;;1.27;;
43327;SDS011;28923;45.412;10.852;2023-04-30T11:53:47;3.60;;;1.35;;
43327;SDS011;28923;45.412;10.852;2023-04-30T11:56:13;4.55;;;1.33;;
43327;SDS011;28923;45.412;10.852;2023-04-30T11:58:38;5.68;;;1.17;;
43327;SDS011;28923;45.412;10.852;2023-04-30T12:01:05;3.70;;;1.38;;
43327;SDS011;28923;45.412;10.852;2023-04-30T12:03:32;2.42;;;1.00;;
43327;SDS011;28923;45.412;10.852;2023-04-30T12:05:57;2.83;;;1.20;;
43327;SDS011;28923;45.412;10.852;2023-04-30T12:08:23;1.30;;;1.10;;
43327;SDS011;28923;45.412;10.852;2023-04-30T12:10:48;2.22;;;1.00;;
43327;SDS011;28923;45.412;10.852;2023-04-30T12:13:14;2.40;;;1.15;;
43327;SDS011;28923;45.412;10.852;2023-04-30T12:15:40;2.58;;;1.00;;
43327;SDS011;28923;45.412;10.852;2023-04-30T12:18:10;3.47;;;1.05;;
43327;SDS011;28923;45.412;10.852;2023-04-30T12:20:37;1.45;;;1.10;;
43327;SDS011;28923;45.412;10.852;2023-04-30T12:23:02;1.90;;;0.93;;
43327;SDS011;28923;45.412;10.852;2023-04-30T12:25:28;1.55;;;1.20;;
43327;SDS011;28923;45.412;10.852;2023-04-30T12:27:53;1.52;;;0.88;;
43327;SDS011;28923;45.412;10.852;2023-04-30T12:30:25;1.35;;;1.10;;
43327;SDS011;28923;45.412;10.852;2023-04-30T12:32:51;2.50;;;0.97;;
43327;SDS011;28923;45.412;10.852;2023-04-30T12:35:18;1.20;;;1.10;;
43327;SDS011;28923;45.412;10.852;2023-04-30T12:37:47;1.52;;;1.10;;
43327;SDS011;28923;45.412;10.852;2023-04-30T12:40:14;0.85;;;0.85;;
43327;SDS011;28923;45.412;10.852;2023-04-30T12:42:41;1.00;;;0.90;;
43327;SDS011;28923;45.412;10.852;2023-04-30T12:45:11;0.80;;;0.80;;
43327;SDS011;28923;45.412;10.852;2023-04-30T12:47:37;0.88;;;0.88;;
43327;SDS011;28923;45.412;10.852;2023-04-30T12:50:06;2.88;;;0.80;;
43327;SDS011;28923;45.412;10.852;2023-04-30T12:52:32;1.70;;;1.10;;
43327;SDS011;28923;45.412;10.852;2023-04-30T12:55:12;2.75;;;1.10;;
43327;SDS011;28923;45.412;10.852;2023-04-30T12:57:38;2.55;;;1.10;;
43327;SDS011;28923;45.412;10.852;2023-04-30T13:00:03;0.82;;;0.80;;
43327;SDS011;28923;45.412;10.852;2023-04-30T13:02:30;2.35;;;0.80;;
43327;SDS011;28923;45.412;10.852;2023-04-30T13:04:56;1.00;;;0.90;;
43327;SDS011;28923;45.412;10.852;2023-04-30T13:07:21;1.00;;;0.90;;
43327;SDS011;28923;45.412;10.852;2023-04-30T13:09:47;1.45;;;0.90;;
43327;SDS011;28923;45.412;10.852;2023-04-30T13:12:12;2.00;;;0.90;;
43327;SDS011;28923;45.412;10.852;2023-04-30T13:14:39;0.75;;;0.73;;
43327;SDS011;28923;45.412;10.852;2023-04-30T13:17:04;1.00;;;0.70;;
43327;SDS011;28923;45.412;10.852;2023-04-30T13:19:31;1.88;;;0.77;;
43327;SDS011;28923;45.412;10.852;2023-04-30T13:21:56;1.83;;;0.80;;
43327;SDS011;28923;45.412;10.852;2023-04-30T13:24:23;2.22;;;0.88;;
43327;SDS011;28923;45.412;10.852;2023-04-30T13:26:48;0.63;;;0.63;;
43327;SDS011;28923;45.412;10.852;2023-04-30T13:29:14;1.25;;;0.82;;
43327;SDS011;28923;45.412;10.852;2023-04-30T13:31:39;1.23;;;0.70;;
43327;SDS011;28923;45.412;10.852;2023-04-30T13:34:07;0.80;;;0.80;;
43327;SDS011;28923;45.412;10.852;2023-04-30T13:36:32;0.95;;;0.77;;
43327;SDS011;28923;45.412;10.852;2023-04-30T13:38:58;1.05;;;0.82;;
43327;SDS011;28923;45.412;10.852;2023-04-30T13:41:24;0.70;;;0.70;;
43327;SDS011;28923;45.412;10.852;2023-04-30T13:43:50;2.08;;;0.80;;
43327;SDS011;28923;45.412;10.852;2023-04-30T13:46:16;5.43;;;0.73;;
43327;SDS011;28923;45.412;10.852;2023-04-30T13:48:42;2.40;;;0.90;;
43327;SDS011;28923;45.412;10.852;2023-04-30T13:51:07;0.82;;;0.70;;
43327;SDS011;28923;45.412;10.852;2023-04-30T13:53:32;1.38;;;0.70;;
43327;SDS011;28923;45.412;10.852;2023-04-30T13:55:58;1.80;;;0.75;;
43327;SDS011;28923;45.412;10.852;2023-04-30T13:58:24;1.15;;;0.70;;
43327;SDS011;28923;45.412;10.852;2023-04-30T14:00:49;3.10;;;0.80;;
43327;SDS011;28923;45.412;10.852;2023-04-30T14:03:15;2.85;;;0.68;;
43327;SDS011;28923;45.412;10.852;2023-04-30T14:05:41;2.65;;;0.82;;
43327;SDS011;28923;45.412;10.852;2023-04-30T14:08:07;13.90;;;1.13;;
43327;SDS011;28923;45.412;10.852;2023-04-30T14:10:32;6.82;;;1.00;;
43327;SDS011;28923;45.412;10.852;2023-04-30T14:12:57;13.45;;;1.80;;
43327;SDS011;28923;45.412;10.852;2023-04-30T14:15:23;4.07;;;1.13;;
43327;SDS011;28923;45.412;10.852;2023-04-30T14:17:49;3.83;;;1.00;;
43327;SDS011;28923;45.412;10.852;2023-04-30T14:20:14;3.20;;;1.00;;
43327;SDS011;28923;45.412;10.852;2023-04-30T14:22:40;5.55;;;0.80;;
43327;SDS011;28923;45.412;10.852;2023-04-30T14:25:06;4.45;;;1.50;;
43327;SDS011;28923;45.412;10.852;2023-04-30T14:27:31;2.67;;;1.05;;
43327;SDS011;28923;45.412;10.852;2023-04-30T14:29:57;5.45;;;0.93;;
43327;SDS011;28923;45.412;10.852;2023-04-30T14:32:24;3.05;;;1.00;;
43327;SDS011;28923;45.412;10.852;2023-04-30T14:34:50;5.78;;;0.80;;
43327;SDS011;28923;45.412;10.852;2023-04-30T14:37:15;5.13;;;1.23;;
43327;SDS011;28923;45.412;10.852;2023-04-30T14:39:41;12.50;;;1.50;;
43327;SDS011;28923;45.412;10.852;2023-04-30T14:42:06;4.10;;;0.95;;
43327;SDS011;28923;45.412;10.852;2023-04-30T14:44:33;5.47;;;0.98;;
43327;SDS011;28923;45.412;10.852;2023-04-30T14:46:59;5.53;;;1.27;;
43327;SDS011;28923;45.412;10.852;2023-04-30T14:49:25;1.48;;;0.80;;
43327;SDS011;28923;45.412;10.852;2023-04-30T14:51:51;3.97;;;0.80;;
43327;SDS011;28923;45.412;10.852;2023-04-30T14:54:17;4.38;;;1.00;;
43327;SDS011;28923;45.412;10.852;2023-04-30T14:56:43;5.07;;;1.17;;
43327;SDS011;28923;45.412;10.852;2023-04-30T14:59:09;3.67;;;0.88;;